Time;durP1;ratioP1;P1;durP2;ratioP2;P2;SDS_P1;SDS_P2;PMS_P1;PMS_P2;Temp;Humidity;BMP_temperature;BMP_pressure;BME280_temperature;BME280_humidity;BME280_pressure;Samples;Min_cycle;Max_cycle;Signal;HPM_P1;HPM_P2
2021/08/13 00:01:39;;;;;;;14.20;7.43;;;;;;;19.83;79.94;101552.41;5039070;28;20137;-69
2021/08/13 00:04:05;;;;;;;15.95;7.90;;;;;;;19.81;80.09;101551.63;5043896;28;20045;-70
2021/08/13 00:06:32;;;;;;;13.88;7.57;;;;;;;19.75;80.42;101541.34;5046015;28;20400;-68
2021/08/13 00:08:58;;;;;;;11.95;7.60;;;;;;;19.73;80.76;101551.97;5034938;28;20138;-68
2021/08/13 00:11:26;;;;;;;14.68;7.88;;;;;;;19.71;80.87;101548.53;5037683;28;20050;-69
2021/08/13 00:13:53;;;;;;;13.20;6.85;;;;;;;19.76;80.81;101545.69;5034920;28;20040;-68
2021/08/13 00:16:19;;;;;;;12.13;8.23;;;;;;;19.77;80.84;101544.78;5033432;28;20107;-68
2021/08/13 00:18:45;;;;;;;12.07;7.88;;;;;;;19.72;80.48;101547.63;5044526;28;20049;-68
2021/08/13 00:21:12;;;;;;;11.23;7.63;;;;;;;19.69;80.78;101547.75;5047933;28;20052;-69
2021/08/13 00:23:38;;;;;;;12.70;8.27;;;;;;;19.69;80.50;101554.81;5046568;28;20053;-68
2021/08/13 00:26:05;;;;;;;11.90;7.25;;;;;;;19.64;80.68;101552.38;5038258;28;20052;-69
2021/08/13 00:28:32;;;;;;;11.68;7.55;;;;;;;19.67;80.65;101567.22;5045896;28;20037;-68
2021/08/13 00:30:59;;;;;;;13.43;7.57;;;;;;;19.66;80.90;101565.50;5032169;28;20050;-68
2021/08/13 00:33:26;;;;;;;12.93;7.75;;;;;;;19.66;80.90;101561.09;5041431;28;20106;-69
2021/08/13 00:35:52;;;;;;;13.32;8.35;;;;;;;19.63;80.94;101565.63;5048628;28;20049;-69
2021/08/13 00:38:19;;;;;;;14.35;9.07;;;;;;;19.62;80.96;101563.91;5040901;28;20037;-68
2021/08/13 00:40:45;;;;;;;11.90;7.82;;;;;;;19.58;81.26;101561.44;5038483;28;20465;-68
2021/08/13 00:43:12;;;;;;;13.60;8.70;;;;;;;19.54;81.38;101573.03;5042328;28;20045;-69
2021/08/13 00:45:40;;;;;;;13.80;8.18;;;;;;;19.54;81.45;101570.38;5044905;28;20110;-69
2021/08/13 00:48:07;;;;;;;12.82;7.97;;;;;;;19.54;81.28;101575.66;5039518;28;20072;-69
2021/08/13 00:50:34;;;;;;;14.82;8.75;;;;;;;19.55;81.47;101569.47;5042795;28;20045;-69
2021/08/13 00:53:02;;;;;;;11.60;8.20;;;;;;;19.51;81.40;101572.31;5044430;28;20057;-69
2021/08/13 00:55:28;;;;;;;12.05;7.45;;;;;;;19.47;81.79;101565.44;5044061;28;20048;-69
2021/08/13 00:57:55;;;;;;;12.43;8.05;;;;;;;19.41;81.73;101571.88;5050013;28;20060;-68
2021/08/13 01:00:22;;;;;;;12.23;7.72;;;;;;;19.41;81.91;101572.72;5044531;28;20049;-69
2021/08/13 01:02:50;;;;;;;15.55;7.47;;;;;;;19.42;81.55;101579.72;5048529;28;20477;-69
2021/08/13 01:05:17;;;;;;;14.02;7.35;;;;;;;19.43;81.17;101583.19;5045865;28;20052;-69
2021/08/13 01:07:43;;;;;;;13.48;8.23;;;;;;;19.43;81.32;101585.81;5053080;28;20079;-69
2021/08/13 01:10:11;;;;;;;12.55;7.80;;;;;;;19.42;81.31;101592.91;5037389;28;20056;-69
2021/08/13 01:12:49;;;;;;;15.15;7.95;;;;;;;19.39;81.61;101589.53;5045220;28;20053;-69
2021/08/13 01:15:17;;;;;;;12.75;8.57;;;;;;;19.33;81.78;101601.22;5040630;28;20136;-69
2021/08/13 01:17:47;;;;;;;14.57;8.65;;;;;;;19.37;82.23;101596.66;5040391;28;20041;-69
2021/08/13 01:20:29;;;;;;;13.40;8.07;;;;;;;19.34;82.15;101595.00;5047172;28;20048;-68
2021/08/13 01:23:00;;;;;;;13.30;8.15;;;;;;;19.33;81.96;101587.16;5045940;28;20057;-69
2021/08/13 01:25:29;;;;;;;13.23;7.18;;;;;;;19.29;81.80;101589.06;5041959;28;20450;-69
2021/08/13 01:27:57;;;;;;;11.23;7.78;;;;;;;19.26;81.90;101590.06;5038359;28;20051;-68
2021/08/13 01:30:25;;;;;;;11.88;8.15;;;;;;;19.21;82.08;101581.50;5036151;28;20465;-68
2021/08/13 01:32:56;;;;;;;13.57;7.82;;;;;;;19.21;81.93;101584.13;5046096;28;20140;-68
2021/08/13 01:35:26;;;;;;;11.98;8.15;;;;;;;19.15;82.13;101576.47;5050742;28;20051;-68
2021/08/13 01:37:55;;;;;;;12.65;7.15;;;;;;;19.10;82.39;101583.72;5035503;28;20589;-68
2021/08/13 01:40:22;;;;;;;12.90;9.00;;;;;;;19.10;82.69;101589.00;5037068;28;20057;-69
2021/08/13 01:42:51;;;;;;;14.38;9.30;;;;;;;19.09;83.18;101582.00;5047774;28;20052;-68
2021/08/13 01:45:21;;;;;;;12.73;8.70;;;;;;;19.10;83.58;101591.63;5043676;28;20056;-68
2021/08/13 01:47:50;;;;;;;15.27;8.70;;;;;;;19.10;83.62;101591.63;5043352;28;20041;-68
2021/08/13 01:50:19;;;;;;;14.63;9.05;;;;;;;19.13;83.90;101594.13;5036070;28;20099;-69
2021/08/13 01:52:46;;;;;;;14.82;8.80;;;;;;;19.12;84.25;101589.75;5044534;28;20064;-70
2021/08/13 01:55:14;;;;;;;13.35;8.43;;;;;;;19.17;84.24;101590.44;5047003;28;20150;-69
2021/08/13 01:57:40;;;;;;;10.68;8.20;;;;;;;19.17;84.01;101594.84;5041731;28;20076;-68
2021/08/13 02:00:08;;;;;;;16.90;8.45;;;;;;;19.09;83.96;101593.38;5045434;28;20046;-68
2021/08/13 02:02:36;;;;;;;12.77;8.07;;;;;;;19.12;83.73;101597.66;5041243;28;20451;-68
2021/08/13 02:05:03;;;;;;;16.10;8.40;;;;;;;19.18;83.56;101592.16;5044386;28;20461;-69
2021/08/13 02:07:35;;;;;;;13.32;8.20;;;;;;;19.19;83.56;101583.34;5031759;28;20042;-68
2021/08/13 02:10:02;;;;;;;12.02;8.55;;;;;;;19.23;83.28;101591.97;5042043;28;20313;-69
2021/08/13 02:12:29;;;;;;;13.65;8.50;;;;;;;19.22;83.39;101590.25;5036533;28;20049;-69
2021/08/13 02:14:56;;;;;;;17.20;8.82;;;;;;;19.22;83.51;101591.09;5037516;28;20053;-69
2021/08/13 02:17:24;;;;;;;13.23;8.30;;;;;;;19.27;83.03;101596.19;5040668;28;20060;-69
2021/08/13 02:19:56;;;;;;;15.52;8.80;;;;;;;19.28;83.09;101597.88;5043071;28;20414;-69
2021/08/13 02:22:24;;;;;;;11.57;7.80;;;;;;;19.26;83.17;101595.34;5036264;28;20049;-69
2021/08/13 02:24:51;;;;;;;16.27;9.10;;;;;;;19.25;83.20;101587.50;5034795;28;20044;-69
2021/08/13 02:27:18;;;;;;;14.93;8.90;;;;;;;19.25;83.40;101588.34;5036101;28;20056;-69
2021/08/13 02:29:45;;;;;;;13.77;8.27;;;;;;;19.21;83.69;101588.53;5049164;28;20500;-69
2021/08/13 02:32:12;;;;;;;14.35;9.20;;;;;;;19.23;83.19;101590.19;5039888;28;20045;-69
2021/08/13 02:34:38;;;;;;;17.05;8.98;;;;;;;19.20;83.05;101582.41;5042247;28;20423;-69
2021/08/13 02:37:10;;;;;;;13.80;8.75;;;;;;;19.18;83.21;101589.53;5046520;28;20190;-69
2021/08/13 02:39:44;;;;;;;18.50;9.73;;;;;;;19.20;83.02;101584.19;5032376;28;20044;-69
2021/08/13 02:42:16;;;;;;;17.03;9.97;;;;;;;19.20;82.79;101582.41;5041859;28;20399;-69
2021/08/13 02:44:47;;;;;;;16.33;9.77;;;;;;;19.22;83.11;101587.59;5043646;28;20084;-69
2021/08/13 02:47:14;;;;;;;15.20;10.40;;;;;;;19.24;83.22;101583.13;5041687;28;20041;-69
2021/08/13 02:49:49;;;;;;;16.73;11.75;;;;;;;19.21;83.03;101578.84;5035237;28;20409;-69
2021/08/13 02:52:19;;;;;;;14.25;9.70;;;;;;;19.10;83.26;101571.38;5036649;28;20056;-69
2021/08/13 02:54:47;;;;;;;16.50;10.98;;;;;;;19.10;83.51;101574.00;5041976;28;20049;-68
2021/08/13 02:57:21;;;;;;;17.08;10.88;;;;;;;19.09;83.42;101569.66;5033258;28;20045;-68
2021/08/13 02:59:49;;;;;;;14.60;10.60;;;;;;;19.11;83.25;101564.34;5032358;28;20044;-68
2021/08/13 03:02:16;;;;;;;15.55;9.23;;;;;;;19.08;83.19;101559.19;5039770;28;20050;-69
2021/08/13 03:04:44;;;;;;;17.02;8.73;;;;;;;18.98;83.67;101558.69;5047595;28;20118;-68
2021/08/13 03:07:13;;;;;;;14.02;8.40;;;;;;;18.91;84.16;101552.81;5042034;28;20049;-69
2021/08/13 03:09:39;;;;;;;11.65;7.90;;;;;;;18.88;84.49;101557.31;5035203;28;20102;-68
2021/08/13 03:12:07;;;;;;;12.38;8.77;;;;;;;18.88;84.64;101558.19;5036994;28;20525;-68
2021/08/13 03:14:35;;;;;;;13.38;8.60;;;;;;;18.86;84.55;101552.13;5046056;28;20052;-69
2021/08/13 03:17:02;;;;;;;14.90;9.10;;;;;;;18.83;84.76;101559.31;5040849;28;20059;-69
2021/08/13 03:19:29;;;;;;;14.82;8.68;;;;;;;18.77;84.60;101548.09;5042699;28;20084;-68
2021/08/13 03:21:56;;;;;;;13.23;8.32;;;;;;;18.72;84.99;101543.91;5044385;28;20071;-68
2021/08/13 03:24:23;;;;;;;13.25;8.68;;;;;;;18.67;85.10;101544.09;5041490;28;20057;-70
2021/08/13 03:26:50;;;;;;;14.40;10.13;;;;;;;18.62;85.35;101546.09;5036009;28;20049;-68
2021/08/13 03:29:16;;;;;;;16.02;8.98;;;;;;;18.62;85.19;101540.81;5050667;28;20089;-68
2021/08/13 03:31:46;;;;;;;13.25;9.13;;;;;;;18.67;84.97;101541.47;5032803;28;20132;-68
2021/08/13 03:34:15;;;;;;;12.95;9.23;;;;;;;18.57;84.99;101541.00;5042472;28;20094;-69
2021/08/13 03:36:42;;;;;;;16.83;9.20;;;;;;;18.53;85.24;101536.75;5043903;28;20045;-69
2021/08/13 03:39:10;;;;;;;14.18;9.25;;;;;;;18.47;85.30;101534.38;5038652;28;20091;-69
2021/08/13 03:41:37;;;;;;;16.48;11.25;;;;;;;18.49;85.48;101543.94;5040257;28;20049;-69
2021/08/13 03:44:05;;;;;;;15.25;9.65;;;;;;;18.48;85.38;101536.09;5040876;28;20053;-69
2021/08/13 03:46:31;;;;;;;17.08;9.80;;;;;;;18.47;85.45;101534.38;5039380;28;20103;-70
2021/08/13 03:48:59;;;;;;;15.85;9.55;;;;;;;18.54;85.23;101538.47;5045041;28;20663;-70
2021/08/13 03:51:25;;;;;;;14.82;9.82;;;;;;;18.63;85.08;101542.53;5050275;28;20498;-70
2021/08/13 03:53:52;;;;;;;15.07;9.60;;;;;;;18.68;84.81;101539.72;5040108;28;20502;-70
2021/08/13 03:56:18;;;;;;;16.75;10.30;;;;;;;18.69;84.74;101533.53;5034848;28;20076;-70
2021/08/13 03:58:44;;;;;;;14.98;9.57;;;;;;;18.65;84.79;101535.44;5038536;28;20056;-68
2021/08/13 04:01:11;;;;;;;17.30;9.77;;;;;;;18.68;84.57;101529.16;5040920;28;20064;-69
2021/08/13 04:03:37;;;;;;;12.85;9.05;;;;;;;18.71;83.97;101526.41;5040531;28;20045;-70
2021/08/13 04:06:05;;;;;;;13.63;9.48;;;;;;;18.75;83.76;101533.25;5043889;28;20422;-69
2021/08/13 04:08:31;;;;;;;18.15;9.23;;;;;;;18.73;83.93;101533.34;5044582;28;20086;-69
2021/08/13 04:10:58;;;;;;;13.50;9.32;;;;;;;18.71;83.92;101534.31;5037322;28;20136;-70
2021/08/13 04:13:24;;;;;;;14.85;8.93;;;;;;;18.70;83.90;101537.88;5050572;28;20048;-68
2021/08/13 04:15:51;;;;;;;16.65;9.27;;;;;;;18.71;83.84;101539.59;5040247;28;20071;-67
2021/08/13 04:18:18;;;;;;;16.95;9.38;;;;;;;18.64;83.77;101542.47;5043461;28;20482;-67
2021/08/13 04:20:44;;;;;;;19.35;10.60;;;;;;;18.58;84.06;101550.63;5043169;28;20053;-67
2021/08/13 04:23:12;;;;;;;18.13;10.18;;;;;;;18.56;83.84;101541.91;5035280;28;20053;-67
2021/08/13 04:25:39;;;;;;;19.67;11.10;;;;;;;18.59;83.70;101557.59;5035271;28;20053;-67
2021/08/13 04:28:05;;;;;;;20.95;11.32;;;;;;;18.67;83.51;101551.16;5049293;28;20045;-67
2021/08/13 04:30:32;;;;;;;17.40;9.85;;;;;;;18.75;84.17;101543.81;5047921;28;20102;-67
2021/08/13 04:32:58;;;;;;;19.13;10.82;;;;;;;18.84;83.66;101550.47;5041657;28;20049;-68
2021/08/13 04:35:25;;;;;;;19.50;10.80;;;;;;;18.86;83.01;101546.00;5037975;28;20041;-69
2021/08/13 04:37:51;;;;;;;18.52;11.65;;;;;;;18.86;82.86;101549.50;5039405;28;20048;-73
2021/08/13 04:40:19;;;;;;;22.17;11.70;;;;;;;18.85;82.36;101534.59;5039129;28;20053;-68
2021/08/13 04:42:45;;;;;;;16.08;10.50;;;;;;;18.77;82.80;101534.06;5038878;28;20068;-68
2021/08/13 04:45:12;;;;;;;20.33;10.65;;;;;;;18.77;82.83;101531.44;5035209;28;20103;-68
2021/08/13 04:47:38;;;;;;;16.63;9.68;;;;;;;18.77;82.71;101531.44;5035495;28;20411;-68
2021/08/13 04:50:06;;;;;;;18.08;10.52;;;;;;;18.82;82.53;101536.50;5039905;28;20119;-68
2021/08/13 04:52:32;;;;;;;17.92;10.63;;;;;;;18.88;82.39;101529.22;5037418;28;20053;-68
2021/08/13 04:54:59;;;;;;;15.52;10.13;;;;;;;18.85;82.42;101541.66;5037861;28;20048;-68
2021/08/13 04:57:27;;;;;;;15.57;10.95;;;;;;;18.90;82.45;101535.28;5041651;28;20049;-68
2021/08/13 04:59:53;;;;;;;20.13;10.05;;;;;;;19.04;82.12;101540.00;5038489;28;20049;-68
2021/08/13 05:02:23;;;;;;;17.75;10.80;;;;;;;19.25;81.13;101543.50;5036188;28;20272;-68
2021/08/13 05:04:58;;;;;;;18.15;9.52;;;;;;;19.40;81.10;101552.53;5039237;28;20049;-68
2021/08/13 05:07:24;;;;;;;18.33;10.93;;;;;;;19.62;80.04;101545.44;5037622;28;20487;-69
2021/08/13 05:09:51;;;;;;;16.70;10.52;;;;;;;19.77;79.24;101542.13;5034823;28;20045;-68
2021/08/13 05:12:17;;;;;;;18.50;11.07;;;;;;;19.83;78.79;101535.72;5036192;28;20060;-68
2021/08/13 05:14:45;;;;;;;21.88;11.43;;;;;;;19.91;79.18;101543.31;5043039;28;20049;-68
2021/08/13 05:17:11;;;;;;;17.65;10.57;;;;;;;20.07;78.94;101552.25;5044782;28;20079;-68
2021/08/13 05:19:38;;;;;;;17.00;11.27;;;;;;;20.28;78.09;101557.47;5038345;28;20102;-68
2021/08/13 05:22:04;;;;;;;20.00;11.55;;;;;;;20.45;77.40;101572.53;5040831;28;20064;-68
2021/08/13 05:24:31;;;;;;;18.00;11.13;;;;;;;20.58;76.98;101575.44;5040841;28;20052;-68
2021/08/13 05:26:57;;;;;;;19.50;11.93;;;;;;;20.71;76.14;101579.19;5041234;28;20107;-69
2021/08/13 05:29:23;;;;;;;19.63;11.25;;;;;;;20.85;75.46;101582.97;5039548;28;20056;-68
2021/08/13 05:31:51;;;;;;;17.55;10.82;;;;;;;20.88;75.47;101585.47;5037622;28;20053;-67
2021/08/13 05:34:18;;;;;;;16.75;11.20;;;;;;;20.98;74.45;101584.09;5037931;28;20135;-67
2021/08/13 05:36:44;;;;;;;17.52;11.18;;;;;;;20.99;74.92;101587.56;5034944;28;20489;-66
2021/08/13 05:39:10;;;;;;;19.48;10.57;;;;;;;20.90;75.07;101581.81;5036501;28;20465;-67
2021/08/13 05:41:37;;;;;;;18.70;10.00;;;;;;;20.88;75.02;101585.47;5037543;28;20510;-67
2021/08/13 05:44:04;;;;;;;15.32;10.02;;;;;;;20.88;74.84;101594.25;5038961;28;20590;-67
2021/08/13 05:46:30;;;;;;;15.25;9.68;;;;;;;20.91;74.89;101601.19;5038517;28;20404;-67
2021/08/13 05:48:58;;;;;;;18.55;11.10;;;;;;;20.97;74.39;101608.81;5039087;28;20049;-67
2021/08/13 05:51:24;;;;;;;17.80;10.93;;;;;;;21.01;74.10;101614.81;5041693;28;20406;-67
2021/08/13 05:53:51;;;;;;;23.75;10.48;;;;;;;21.11;74.13;101616.06;5036539;28;20041;-67
2021/08/13 05:56:17;;;;;;;18.38;11.32;;;;;;;21.15;73.93;101617.63;5038571;28;20400;-68
2021/08/13 05:58:44;;;;;;;19.27;11.13;;;;;;;21.13;74.14;101620.34;5038742;28;20048;-67
2021/08/13 06:01:10;;;;;;;17.73;11.48;;;;;;;21.12;74.17;101620.44;5034218;28;20106;-68
2021/08/13 06:03:37;;;;;;;17.65;11.55;;;;;;;21.13;74.17;101623.00;5037275;28;20057;-68
2021/08/13 06:06:04;;;;;;;18.98;13.05;;;;;;;21.19;73.59;101624.47;5036632;28;20057;-68
2021/08/13 06:08:31;;;;;;;24.50;12.95;;;;;;;21.18;73.36;101632.50;5034635;28;20049;-68
2021/08/13 06:10:57;;;;;;;20.15;13.38;;;;;;;21.15;73.61;101637.94;5032697;28;20102;-68
2021/08/13 06:13:24;;;;;;;18.35;11.88;;;;;;;21.19;73.66;101636.84;5034818;28;20049;-67
2021/08/13 06:15:50;;;;;;;20.65;13.32;;;;;;;21.22;73.77;101634.03;5040016;28;20053;-67
2021/08/13 06:18:17;;;;;;;21.67;13.25;;;;;;;21.30;73.61;101626.59;5039649;28;20055;-68
2021/08/13 06:20:43;;;;;;;23.25;13.25;;;;;;;21.38;73.06;101618.25;5039032;28;20041;-67
2021/08/13 06:23:11;;;;;;;24.85;13.05;;;;;;;21.61;73.01;101627.69;5033407;28;20049;-67
2021/08/13 06:25:37;;;;;;;27.42;15.20;;;;;;;21.88;71.85;101624.53;5035196;28;20506;-67
2021/08/13 06:28:04;;;;;;;24.42;14.85;;;;;;;21.99;70.81;101635.44;5039817;28;20075;-68
2021/08/13 06:30:30;;;;;;;26.10;15.27;;;;;;;22.04;70.67;101622.78;5030721;28;22209;-67
2021/08/13 06:32:59;;;;;;;26.05;14.18;;;;;;;22.03;70.90;101626.38;5036724;28;20060;-67
2021/08/13 06:35:26;;;;;;;23.17;14.38;;;;;;;22.05;70.75;101635.09;5032304;28;20143;-67
2021/08/13 06:37:55;;;;;;;25.67;14.05;;;;;;;22.03;70.24;101642.25;5032960;28;20056;-67
2021/08/13 06:40:23;;;;;;;18.73;12.75;;;;;;;22.02;70.98;101645.84;5034398;28;20048;-67
2021/08/13 06:42:51;;;;;;;26.85;14.80;;;;;;;22.08;70.89;101628.75;5038213;28;20052;-68
2021/08/13 06:45:19;;;;;;;20.13;13.45;;;;;;;22.11;70.88;101633.06;5035019;28;20045;-69
2021/08/13 06:47:46;;;;;;;30.00;17.58;;;;;;;22.18;70.38;101634.44;5035568;28;20052;-68
2021/08/13 06:50:13;;;;;;;24.23;17.27;;;;;;;22.14;69.98;101628.47;5035300;28;20048;-68
2021/08/13 06:52:40;;;;;;;25.48;17.23;;;;;;;22.18;69.61;101631.78;5036234;28;20136;-68
2021/08/13 06:55:09;;;;;;;27.13;18.30;;;;;;;22.18;69.73;101626.50;5035856;28;20044;-68
2021/08/13 06:57:38;;;;;;;24.63;17.30;;;;;;;22.14;70.21;101638.19;5036871;28;20056;-68
2021/08/13 07:00:05;;;;;;;30.35;17.52;;;;;;;22.25;69.62;101627.88;5035086;28;20045;-68
2021/08/13 07:02:32;;;;;;;32.35;18.10;;;;;;;22.19;70.08;101636.16;5036134;28;20052;-68
2021/08/13 07:04:58;;;;;;;39.38;21.55;;;;;;;22.16;69.98;101634.50;5037945;28;20059;-67
2021/08/13 07:07:25;;;;;;;31.45;21.80;;;;;;;21.90;70.41;101651.81;5039955;28;20057;-67
2021/08/13 07:09:51;;;;;;;41.90;22.05;;;;;;;21.85;71.31;101654.72;5039416;28;20095;-67
2021/08/13 07:12:18;;;;;;;31.63;22.27;;;;;;;21.85;71.62;101659.13;5044573;28;20107;-67
2021/08/13 07:14:46;;;;;;;38.30;24.77;;;;;;;21.70;71.93;101664.31;5040654;28;20045;-68
2021/08/13 07:17:13;;;;;;;33.85;23.65;;;;;;;21.69;72.54;101664.38;5033477;28;20597;-69
2021/08/13 07:19:39;;;;;;;31.75;22.40;;;;;;;21.70;72.82;101661.66;5031876;28;20052;-67
2021/08/13 07:22:06;;;;;;;41.33;26.67;;;;;;;21.71;72.03;101657.19;5037505;28;20787;-67
2021/08/13 07:24:32;;;;;;;33.30;21.92;;;;;;;21.66;72.47;101654.78;5038227;28;20053;-69
2021/08/13 07:26:59;;;;;;;29.55;21.13;;;;;;;21.78;72.57;101655.09;5038369;28;20083;-66
2021/08/13 07:29:26;;;;;;;38.17;25.90;;;;;;;21.81;71.01;101665.53;5045252;28;20049;-69
2021/08/13 07:31:55;;;;;;;35.05;24.35;;;;;;;21.83;71.46;101666.28;5041827;28;20465;-66
2021/08/13 07:34:22;;;;;;;34.63;24.15;;;;;;;21.97;71.65;101655.84;5041795;28;20053;-67
2021/08/13 07:36:48;;;;;;;34.30;24.55;;;;;;;22.22;71.23;101667.78;5041997;28;20053;-68
2021/08/13 07:39:15;;;;;;;36.88;25.65;;;;;;;22.39;70.05;101664.22;5042595;28;20396;-68
2021/08/13 07:41:41;;;;;;;41.28;24.15;;;;;;;22.42;69.85;101679.13;5049133;28;20056;-68
2021/08/13 07:44:08;;;;;;;33.15;21.98;;;;;;;22.33;69.04;101683.94;5042852;28;20037;-68
2021/08/13 07:46:34;;;;;;;33.22;24.08;;;;;;;22.15;69.20;101690.25;5045241;28;20064;-70
2021/08/13 07:49:02;;;;;;;29.52;21.92;;;;;;;22.05;69.26;101705.78;5047094;28;20061;-68
2021/08/13 07:51:29;;;;;;;26.65;20.35;;;;;;;21.95;68.99;101702.75;5044110;28;20499;-68
2021/08/13 07:53:55;;;;;;;32.83;20.52;;;;;;;21.91;69.33;101701.19;5050727;28;20049;-69
2021/08/13 07:56:22;;;;;;;33.50;23.02;;;;;;;21.94;69.02;101706.31;5052668;28;20045;-69
2021/08/13 07:58:48;;;;;;;30.02;21.70;;;;;;;22.00;69.73;101713.09;5049036;28;20170;-68
2021/08/13 08:01:15;;;;;;;39.58;22.88;;;;;;;22.05;70.05;101703.97;5045769;28;20043;-68
2021/08/13 08:03:41;;;;;;;30.98;20.83;;;;;;;22.05;69.36;101714.56;5051626;28;20059;-68
2021/08/13 08:06:09;;;;;;;32.03;22.65;;;;;;;21.99;69.29;101708.72;5039796;28;20056;-68
2021/08/13 08:08:35;;;;;;;34.25;23.70;;;;;;;21.95;68.99;101701.91;5041728;28;20110;-68
2021/08/13 08:11:02;;;;;;;32.85;24.10;;;;;;;21.90;70.41;101715.38;5049103;28;20059;-68
2021/08/13 08:13:28;;;;;;;29.13;22.45;;;;;;;21.80;70.76;101716.78;5049130;28;20122;-67
2021/08/13 08:15:55;;;;;;;33.85;23.42;;;;;;;21.79;70.65;101723.88;5049358;28;20053;-68
2021/08/13 08:18:23;;;;;;;48.92;24.67;;;;;;;21.92;70.81;101725.88;5053494;28;20456;-68
2021/08/13 08:20:50;;;;;;;36.20;23.98;;;;;;;22.08;71.00;101733.91;5048504;28;20052;-69
2021/08/13 08:23:18;;;;;;;31.42;22.15;;;;;;;22.33;70.24;101728.16;5044594;28;20053;-67
2021/08/13 08:25:44;;;;;;;29.67;19.20;;;;;;;22.41;66.66;101725.16;5046265;28;20111;-68
2021/08/13 08:28:11;;;;;;;24.98;18.25;;;;;;;22.47;66.97;101728.31;5047218;28;20060;-68
2021/08/13 08:30:37;;;;;;;26.33;16.83;;;;;;;22.59;65.87;101732.09;5046916;28;20099;-67
2021/08/13 08:33:04;;;;;;;24.90;15.98;;;;;;;22.59;65.19;101729.47;5054045;28;20056;-68
2021/08/13 08:35:30;;;;;;;22.05;16.48;;;;;;;22.58;65.18;101733.03;5047814;28;20056;-67
2021/08/13 08:38:00;;;;;;;23.73;17.25;;;;;;;22.60;65.07;101746.22;5053017;28;20525;-68
2021/08/13 08:40:30;;;;;;;26.05;16.70;;;;;;;22.59;65.56;101752.44;5046295;28;20044;-69
2021/08/13 08:42:59;;;;;;;25.92;16.70;;;;;;;22.66;65.18;101772.38;5049100;28;20053;-68
2021/08/13 08:45:26;;;;;;;23.88;16.10;;;;;;;22.57;65.34;101778.19;5047096;28;20103;-67
2021/08/13 08:47:57;;;;;;;26.00;15.52;;;;;;;22.60;65.84;101768.28;5046650;28;20052;-68
2021/08/13 08:50:25;;;;;;;24.30;14.75;;;;;;;22.63;66.16;101756.66;5044489;28;20506;-68
2021/08/13 08:52:52;;;;;;;21.88;13.18;;;;;;;22.76;65.36;101757.69;5044486;28;20045;-68
2021/08/13 08:55:19;;;;;;;18.20;11.07;;;;;;;22.81;64.24;101754.78;5045795;28;20049;-67
2021/08/13 08:57:48;;;;;;;14.10;9.95;;;;;;;22.99;62.34;101758.22;5052500;28;20498;-67
2021/08/13 09:00:15;;;;;;;15.55;10.25;;;;;;;23.04;62.65;101757.97;5047611;28;20045;-68
2021/08/13 09:02:43;;;;;;;14.30;8.20;;;;;;;23.19;60.60;101754.50;5051744;28;20596;-68
2021/08/13 09:05:10;;;;;;;15.55;7.05;;;;;;;23.18;59.53;101754.53;5046570;28;20041;-68
2021/08/13 09:07:37;;;;;;;9.43;6.53;;;;;;;23.16;59.48;101759.94;5045613;28;20056;-68
2021/08/13 09:10:04;;;;;;;10.70;6.75;;;;;;;23.14;60.89;101768.00;5046888;28;20045;-68
2021/08/13 09:12:32;;;;;;;10.73;7.28;;;;;;;23.10;60.47;101782.38;5041436;28;20057;-68
2021/08/13 09:15:00;;;;;;;11.45;6.80;;;;;;;23.10;61.37;101782.38;5045113;28;20733;-68
2021/08/13 09:17:32;;;;;;;11.65;6.90;;;;;;;23.25;61.31;101793.97;5047783;28;20048;-68
2021/08/13 09:19:59;;;;;;;9.73;6.35;;;;;;;23.35;60.71;101785.47;5049003;28;21476;-68
2021/08/13 09:22:27;;;;;;;12.38;6.30;;;;;;;23.38;62.11;101777.34;5045903;28;20049;-67
2021/08/13 09:24:55;;;;;;;13.65;6.90;;;;;;;23.53;60.36;101779.09;5044380;28;20048;-68
2021/08/13 09:27:24;;;;;;;15.63;8.27;;;;;;;23.56;59.96;101780.72;5043218;28;20095;-67
2021/08/13 09:30:13;;;;;;;11.80;6.30;;;;;;;23.71;60.99;101768.34;5043148;28;20048;-71
2021/08/13 09:32:41;;;;;;;8.52;5.53;;;;;;;23.96;60.40;101766.94;5043024;28;20489;-67
2021/08/13 09:35:09;;;;;;;9.13;5.97;;;;;;;24.31;59.35;101764.81;5038790;28;20404;-68
2021/08/13 09:37:37;;;;;;;9.65;4.80;;;;;;;24.59;58.18;101762.25;5042185;28;20053;-67
2021/08/13 09:40:05;;;;;;;9.30;5.22;;;;;;;24.77;56.93;101758.47;5046726;28;20046;-67
2021/08/13 09:42:36;;;;;;;8.95;5.10;;;;;;;24.81;56.78;101756.47;5039872;28;20099;-66
2021/08/13 09:45:05;;;;;;;9.57;4.47;;;;;;;24.80;56.97;101765.38;5039034;28;20143;-67
2021/08/13 09:47:44;;;;;;;9.40;3.40;;;;;;;24.87;55.60;101768.53;5046080;28;20045;-68
2021/08/13 09:50:12;;;;;;;6.22;3.65;;;;;;;24.92;55.56;101763.75;5037526;28;20092;-67
2021/08/13 09:52:39;;;;;;;6.00;3.70;;;;;;;24.91;54.68;101762.91;5042392;28;20449;-70
2021/08/13 09:55:16;;;;;;;7.00;3.92;;;;;;;24.87;54.51;101776.50;5041086;28;20411;-67
2021/08/13 09:57:45;;;;;;;6.32;3.55;;;;;;;24.67;55.86;101775.94;5046604;28;20056;-71
2021/08/13 10:00:13;;;;;;;7.40;4.00;;;;;;;24.55;56.19;101771.38;5040267;28;20052;-68
2021/08/13 10:02:41;;;;;;;6.95;3.65;;;;;;;24.64;57.34;101763.69;5042971;28;20045;-68
2021/08/13 10:05:21;;;;;;;7.82;3.60;;;;;;;24.83;56.25;101779.34;5041760;28;20056;-67
2021/08/13 10:07:49;;;;;;;7.57;3.30;;;;;;;24.88;56.54;101775.56;5044750;28;20045;-69
2021/08/13 10:10:16;;;;;;;8.65;2.65;;;;;;;24.96;56.49;101771.44;5048428;28;20568;-70
2021/08/13 10:12:44;;;;;;;5.47;2.38;;;;;;;25.02;55.06;101767.53;5040778;28;20156;-68
2021/08/13 10:15:11;;;;;;;7.20;2.42;;;;;;;25.01;55.00;101773.81;5050200;28;20087;-68
2021/08/13 10:17:38;;;;;;;6.93;2.33;;;;;;;24.98;55.58;101761.56;5051273;28;20048;-68
2021/08/13 10:20:06;;;;;;;5.40;2.45;;;;;;;25.19;54.49;101757.63;5048741;28;20045;-68
2021/08/13 10:22:34;;;;;;;5.47;2.70;;;;;;;25.17;54.73;101762.19;5045313;28;20049;-68
2021/08/13 10:25:01;;;;;;;6.10;2.38;;;;;;;25.31;55.15;101770.09;5042777;28;20106;-68
2021/08/13 10:27:28;;;;;;;5.65;2.70;;;;;;;25.29;54.05;101758.72;5046912;28;20136;-68
2021/08/13 10:29:55;;;;;;;7.15;2.53;;;;;;;25.35;54.38;101760.97;5048279;28;20048;-68
2021/08/13 10:32:22;;;;;;;7.88;2.63;;;;;;;25.30;54.21;101760.44;5048714;28;20036;-68
2021/08/13 10:34:49;;;;;;;6.80;3.20;;;;;;;25.33;52.88;101764.69;5050056;28;20048;-67
2021/08/13 10:37:16;;;;;;;5.28;1.90;;;;;;;25.29;52.85;101772.88;5042685;28;20045;-69
2021/08/13 10:39:45;;;;;;;4.50;2.05;;;;;;;25.22;52.08;101768.91;5047106;28;20575;-68
2021/08/13 10:42:16;;;;;;;6.03;2.45;;;;;;;24.97;53.49;101765.16;5036975;28;20418;-68
2021/08/13 10:44:49;;;;;;;5.25;2.67;;;;;;;24.92;53.79;101766.41;5046419;28;20468;-67
2021/08/13 10:47:20;;;;;;;6.28;2.63;;;;;;;24.73;54.39;101761.41;5045394;28;20049;-69
2021/08/13 10:49:48;;;;;;;4.95;2.40;;;;;;;24.63;55.89;101758.44;5049940;28;20055;-68
2021/08/13 10:52:15;;;;;;;5.03;2.58;;;;;;;24.59;55.74;101752.47;5039635;28;20054;-68
2021/08/13 10:54:44;;;;;;;7.13;2.85;;;;;;;24.60;55.68;101753.31;5045394;28;20056;-68
2021/08/13 10:57:12;;;;;;;4.97;2.65;;;;;;;24.67;56.70;101744.84;5045514;28;20135;-68
2021/08/13 10:59:55;;;;;;;5.65;2.60;;;;;;;25.01;55.12;101751.66;5047228;28;20066;-68
2021/08/13 11:02:22;;;;;;;7.07;2.75;;;;;;;25.15;53.61;101757.81;5043189;28;20045;-68
2021/08/13 11:04:50;;;;;;;5.55;3.08;;;;;;;25.37;52.99;101755.53;5044222;28;20148;-67
2021/08/13 11:07:56;;;;;;;6.78;3.22;;;;;;;25.53;52.72;101768.72;5042730;28;20053;-68
2021/08/13 11:10:55;;;;;;;5.15;2.70;;;;;;;25.57;52.51;101765.75;5050364;28;20057;-68
2021/08/13 11:13:23;;;;;;;4.20;2.45;;;;;;;25.62;53.36;101757.44;5045197;28;20091;-68
2021/08/13 11:15:50;;;;;;;6.05;2.75;;;;;;;25.72;52.47;101761.19;5045283;28;20070;-69
2021/08/13 11:18:27;;;;;;;4.80;2.50;;;;;;;25.48;52.43;101762.84;5045971;28;20506;-68